Time;durP1;ratioP1;P1;durP2;ratioP2;P2;SDS_P1;SDS_P2;PMS_P1;PMS_P2;Temp;Humidity;BMP_temperature;BMP_pressure;BME280_temperature;BME280_humidity;BME280_pressure;Samples;Min_cycle;Max_cycle;Signal;HPM_P1;HPM_P2
2023/06/06 00:01:54;;;;;;;1.02;0.50;;;18.90;77.90;;;;;;6272927;22;20016;-78
2023/06/06 00:04:20;;;;;;;1.55;0.70;;;18.90;78.10;;;;;;6273922;22;20355;-75
2023/06/06 00:06:47;;;;;;;0.88;0.60;;;18.80;78.10;;;;;;6274083;22;20012;-77
2023/06/06 00:09:14;;;;;;;1.65;1.02;;;18.80;78.10;;;;;;6274093;22;20383;-76
2023/06/06 00:12:17;;;;;;;1.42;1.02;;;18.80;77.90;;;;;;6247574;22;20027;-77
2023/06/06 00:14:43;;;;;;;1.90;0.93;;;18.90;77.80;;;;;;6248505;22;20433;-76
2023/06/06 00:17:09;;;;;;;1.05;0.60;;;18.90;77.70;;;;;;6273426;22;20053;-76
2023/06/06 00:19:54;;;;;;;0.90;0.68;;;19.00;77.70;;;;;;6274232;22;20007;-78
2023/06/06 00:22:22;;;;;;;1.35;1.10;;;19.00;77.50;;;;;;6273407;22;20015;-79
2023/06/06 00:24:57;;;;;;;0.47;0.43;;;19.00;77.60;;;;;;6273075;22;20012;-78
2023/06/06 00:27:23;;;;;;;0.85;0.50;;;19.00;77.70;;;;;;6272435;22;20019;-77
2023/06/06 00:29:49;;;;;;;;;;;19.00;77.50;;;;;;6274355;22;20421;-79
2023/06/06 00:32:15;;;;;;;2.75;0.77;;;19.00;77.50;;;;;;6247171;22;19926;-79
2023/06/06 00:34:41;;;;;;;1.20;0.80;;;19.00;77.00;;;;;;6273914;22;20107;-77
2023/06/06 00:37:07;;;;;;;0.73;0.68;;;19.00;77.70;;;;;;6274109;22;20004;-77
2023/06/06 00:39:33;;;;;;;0.93;0.73;;;19.00;77.70;;;;;;6273431;22;20042;-76
2023/06/06 00:42:00;;;;;;;1.17;0.90;;;19.00;77.80;;;;;;6247164;22;20380;-78
2023/06/06 00:44:25;;;;;;;;;;;19.00;77.90;;;;;;6276068;22;20019;-78
2023/06/06 00:47:05;;;;;;;2.42;2.22;;;19.00;77.90;;;;;;6247096;22;19911;-77
2023/06/06 00:49:56;;;;;;;1.55;0.93;;;19.00;77.70;;;;;;6273608;22;20026;-77
2023/06/06 00:52:24;;;;;;;0.80;0.73;;;18.90;77.80;;;;;;6273212;22;20019;-79
2023/06/06 00:54:54;;;;;;;1.60;0.70;;;18.90;77.90;;;;;;6273276;22;20007;-78
2023/06/06 00:57:20;;;;;;;4.70;1.38;;;19.00;78.20;;;;;;6273124;22;20027;-76
2023/06/06 00:59:46;;;;;;;;;;;18.90;78.60;;;;;;6273371;22;20007;-78
2023/06/06 01:02:37;;;;;;;0.60;0.40;;;18.90;78.00;;;;;;6247913;22;19994;-77
2023/06/06 01:05:06;;;;;;;0.75;0.73;;;18.90;78.50;;;;;;6270335;22;20098;-76
2023/06/06 01:10:28;;;;;;;1.20;0.88;;;18.80;78.50;;;;;;6272491;22;20066;-79
2023/06/06 01:13:38;;;;;;;1.65;0.65;;;18.90;78.50;;;;;;6268647;22;20038;-77
2023/06/06 01:16:33;;;;;;;0.88;0.50;;;18.90;78.40;;;;;;6274863;22;20087;-79
2023/06/06 01:19:01;;;;;;;2.15;1.35;;;18.80;78.50;;;;;;6274639;22;20004;-77
2023/06/06 01:21:46;;;;;;;2.15;1.27;;;18.80;78.60;;;;;;6273001;22;20007;-76
2023/06/06 01:24:13;;;;;;;0.50;0.45;;;18.80;78.80;;;;;;6248118;22;20007;-79
2023/06/06 01:26:39;;;;;;;0.88;0.70;;;18.80;78.40;;;;;;6272342;22;20061;-78
2023/06/06 01:29:05;;;;;;;1.00;0.85;;;18.80;78.60;;;;;;6273051;22;20077;-79
2023/06/06 01:32:08;;;;;;;0.88;0.60;;;18.80;78.70;;;;;;6274700;22;20038;-79
2023/06/06 01:35:17;;;;;;;0.32;0.25;;;18.80;78.90;;;;;;6247249;22;20318;-77
2023/06/06 01:40:11;;;;;;;0.52;0.25;;;18.70;79.00;;;;;;6245475;22;20016;-76
2023/06/06 01:42:44;;;;;;;0.65;0.52;;;18.70;79.00;;;;;;6217169;23;20012;-79
2023/06/06 01:45:13;;;;;;;2.63;1.27;;;18.70;79.20;;;;;;6216669;23;20484;-76
2023/06/06 01:47:40;;;;;;;1.55;1.38;;;18.70;79.20;;;;;;6216861;23;20102;-78
2023/06/06 01:50:10;;;;;;;0.63;0.50;;;18.70;79.20;;;;;;6216718;23;20008;-78
2023/06/06 01:52:37;;;;;;;3.20;0.82;;;18.70;79.10;;;;;;6217522;23;20012;-77
2023/06/06 01:55:10;;;;;;;2.47;1.33;;;18.70;79.10;;;;;;6217096;23;20004;-77
2023/06/06 01:57:36;;;;;;;0.88;0.77;;;18.70;79.30;;;;;;6191493;23;20012;-76
2023/06/06 02:00:06;;;;;;;1.15;0.88;;;18.70;79.30;;;;;;6217530;23;20012;-77
2023/06/06 02:02:32;;;;;;;0.73;0.50;;;18.70;79.00;;;;;;6216632;23;20020;-78
2023/06/06 02:04:59;;;;;;;0.35;0.35;;;18.80;78.90;;;;;;6217556;23;20314;-77
2023/06/06 02:07:28;;;;;;;0.52;0.38;;;18.80;78.90;;;;;;6191716;23;20015;-78
2023/06/06 02:09:54;;;;;;;0.90;0.63;;;18.80;78.80;;;;;;6243582;23;20012;-77
2023/06/06 02:12:20;;;;;;;;;;;18.80;78.70;;;;;;6217085;23;20004;-78
2023/06/06 02:14:46;;;;;;;1.02;0.75;;;18.80;78.60;;;;;;6217225;23;20284;-78
2023/06/06 02:17:12;;;;;;;0.63;0.40;;;18.80;78.30;;;;;;6243801;23;20039;-77
2023/06/06 02:19:38;;;;;;;;;;;18.90;78.40;;;;;;6244339;23;20008;-77
2023/06/06 02:22:05;;;;;;;0.65;0.30;;;18.90;78.50;;;;;;6216609;23;19946;-76
2023/06/06 02:24:52;;;;;;;1.67;0.98;;;18.90;77.70;;;;;;6242782;23;20016;-77
2023/06/06 02:27:21;;;;;;;1.40;1.00;;;18.80;78.30;;;;;;6243522;23;20008;-76
2023/06/06 02:29:50;;;;;;;2.92;0.68;;;18.90;78.20;;;;;;6216527;23;20016;-78
2023/06/06 02:32:16;;;;;;;1.83;1.38;;;18.90;78.40;;;;;;6216658;23;20035;-78
2023/06/06 02:34:59;;;;;;;0.20;0.20;;;18.90;78.40;;;;;;6216464;23;20020;-78
2023/06/06 02:37:26;;;;;;;0.82;0.45;;;18.90;78.50;;;;;;6217117;23;20034;-79
2023/06/06 02:39:53;;;;;;;0.38;0.30;;;18.90;78.30;;;;;;6190304;23;20055;-77
2023/06/06 02:42:19;;;;;;;1.40;0.85;;;18.90;77.70;;;;;;6243600;23;20036;-78
2023/06/06 02:44:45;;;;;;;0.75;0.52;;;18.90;78.30;;;;;;6216529;23;20619;-78
2023/06/06 02:47:12;;;;;;;2.53;1.48;;;18.90;78.30;;;;;;6242965;23;20429;-77
2023/06/06 02:49:37;;;;;;;;;;;18.90;78.30;;;;;;6217845;23;20016;-77
2023/06/06 02:52:05;;;;;;;1.08;0.68;;;18.90;78.40;;;;;;6216925;23;19908;-76
2023/06/06 02:54:31;;;;;;;1.83;1.38;;;18.90;77.60;;;;;;6193461;23;20012;-78
2023/06/06 02:56:57;;;;;;;;;;;18.90;78.30;;;;;;6217677;23;20035;-76
2023/06/06 02:59:23;;;;;;;1.27;1.15;;;18.90;78.50;;;;;;6218489;23;19918;-78
2023/06/06 03:02:07;;;;;;;1.15;0.57;;;18.90;79.40;;;;;;6192716;23;20015;-76
2023/06/06 03:04:33;;;;;;;1.00;0.50;;;18.90;79.00;;;;;;6218849;23;20019;-77
2023/06/06 03:07:00;;;;;;;0.95;0.55;;;18.80;78.90;;;;;;6218368;23;20112;-77
2023/06/06 03:09:27;;;;;;;1.50;0.82;;;18.80;78.90;;;;;;6218429;23;20435;-78
2023/06/06 03:11:54;;;;;;;3.35;0.95;;;18.80;78.20;;;;;;6218000;23;20069;-77
2023/06/06 03:14:20;;;;;;;1.58;0.82;;;18.80;78.70;;;;;;6218619;23;20004;-77
2023/06/06 03:16:56;;;;;;;1.08;0.77;;;18.90;79.00;;;;;;6244566;23;20008;-78
2023/06/06 03:19:35;;;;;;;1.93;0.70;;;18.80;79.10;;;;;;6218620;23;20015;-76
2023/06/06 03:22:19;;;;;;;0.75;0.55;;;18.80;78.80;;;;;;6218219;23;20452;-78
2023/06/06 03:24:49;;;;;;;0.52;0.52;;;18.80;78.80;;;;;;6218709;23;20479;-76
2023/06/06 03:27:16;;;;;;;0.30;0.30;;;18.90;78.80;;;;;;6217491;23;20016;-78
2023/06/06 03:29:42;;;;;;;1.42;1.27;;;18.90;78.60;;;;;;6245452;23;20010;-77
2023/06/06 03:32:26;;;;;;;1.60;0.75;;;18.90;78.50;;;;;;6217991;23;20043;-79
2023/06/06 03:34:52;;;;;;;0.47;0.35;;;18.90;78.50;;;;;;6218473;23;20004;-78
2023/06/06 03:37:18;;;;;;;0.50;0.50;;;18.90;78.40;;;;;;6217656;23;20012;-78
2023/06/06 03:39:44;;;;;;;1.42;0.50;;;18.90;78.50;;;;;;6218120;23;20062;-78
2023/06/06 03:42:16;;;;;;;2.15;0.95;;;18.90;78.40;;;;;;6244281;23;20337;-75
2023/06/06 03:44:44;;;;;;;2.90;1.00;;;18.90;78.40;;;;;;6244963;23;20050;-78
2023/06/06 03:47:10;;;;;;;0.40;0.40;;;19.00;78.40;;;;;;6244873;23;20426;-77
2023/06/06 03:50:00;;;;;;;1.25;0.65;;;18.90;78.50;;;;;;6245106;23;20000;-78
2023/06/06 03:52:26;;;;;;;0.40;0.38;;;18.90;78.80;;;;;;6192254;23;20016;-76
2023/06/06 03:54:52;;;;;;;1.20;0.65;;;18.90;79.10;;;;;;6218110;23;20015;-78
2023/06/06 03:57:18;;;;;;;2.95;0.85;;;18.90;80.10;;;;;;6217715;23;20004;-77
2023/06/06 03:59:44;;;;;;;;;;;18.80;79.40;;;;;;6246290;23;20016;-76
2023/06/06 04:02:10;;;;;;;0.57;0.57;;;18.80;79.40;;;;;;6244161;23;20333;-75
2023/06/06 04:04:36;;;;;;;0.93;0.75;;;18.80;79.30;;;;;;6218640;23;20062;-78
2023/06/06 04:07:03;;;;;;;1.75;1.02;;;18.80;79.40;;;;;;6192302;23;20042;-77
2023/06/06 04:09:29;;;;;;;0.82;0.77;;;18.80;78.80;;;;;;6218378;23;20011;-77
2023/06/06 04:12:13;;;;;;;;;;;18.80;79.40;;;;;;6218124;23;20020;-77
2023/06/06 04:14:47;;;;;;;1.42;1.00;;;18.80;79.10;;;;;;6192140;23;19912;-78
2023/06/06 04:17:13;;;;;;;1.73;1.02;;;18.80;79.00;;;;;;6179755;23;20084;-76
2023/06/06 04:19:39;;;;;;;1.13;0.80;;;18.80;78.50;;;;;;6156444;23;20016;-76
2023/06/06 04:22:05;;;;;;;;;;;18.90;79.10;;;;;;6180808;23;20020;-77
2023/06/06 04:24:50;;;;;;;1.50;1.15;;;18.90;79.20;;;;;;6181562;23;20353;-77
2023/06/06 04:27:40;;;;;;;0.60;0.60;;;18.90;78.80;;;;;;6156182;23;20013;-77
2023/06/06 04:30:09;;;;;;;1.70;0.60;;;19.00;78.60;;;;;;6180812;23;20071;-77
2023/06/06 04:32:36;;;;;;;0.82;0.68;;;19.00;78.30;;;;;;6180748;23;20100;-78
2023/06/06 04:35:03;;;;;;;1.92;1.58;;;19.10;78.40;;;;;;6181106;23;20020;-77
2023/06/06 04:38:00;;;;;;;2.13;0.85;;;19.10;78.40;;;;;;6180388;23;20354;-77
2023/06/06 04:40:32;;;;;;;;;;;19.20;78.30;;;;;;6180907;23;20108;-78
2023/06/06 04:43:00;;;;;;;1.15;0.77;;;19.20;78.50;;;;;;6181326;23;19956;-78
2023/06/06 04:45:45;;;;;;;1.05;0.80;;;19.30;78.20;;;;;;6180430;23;20475;-76
2023/06/06 04:48:12;;;;;;;2.30;2.05;;;19.30;78.50;;;;;;6179891;23;20462;-76
2023/06/06 04:50:55;;;;;;;1.13;0.55;;;19.30;78.20;;;;;;6155479;23;20401;-77
2023/06/06 04:53:21;;;;;;;1.00;0.70;;;19.40;78.20;;;;;;6156216;23;20104;-76
2023/06/06 04:55:47;;;;;;;;;;;19.40;77.90;;;;;;6186588;23;20009;-77
2023/06/06 04:58:14;;;;;;;1.17;0.75;;;19.40;78.20;;;;;;6187589;23;19915;-77
2023/06/06 05:00:45;;;;;;;1.08;0.80;;;19.40;78.10;;;;;;6186457;23;20016;-77
2023/06/06 05:03:20;;;;;;;2.58;1.42;;;19.40;78.10;;;;;;6188318;23;20016;-76
2023/06/06 05:05:52;;;;;;;1.90;1.15;;;19.50;78.50;;;;;;6186628;23;20017;-77
2023/06/06 05:08:31;;;;;;;1.85;0.65;;;19.50;78.40;;;;;;6187589;23;20011;-76
2023/06/06 05:10:58;;;;;;;0.65;0.57;;;19.60;78.10;;;;;;6211855;23;20358;-77
2023/06/06 05:13:24;;;;;;;1.73;0.45;;;19.60;77.80;;;;;;6186650;23;20005;-76
2023/06/06 05:15:50;;;;;;;1.35;0.55;;;19.60;78.70;;;;;;6186917;23;20084;-77
2023/06/06 05:18:18;;;;;;;1.20;0.85;;;19.60;77.80;;;;;;6213998;23;20012;-77
2023/06/06 05:20:45;;;;;;;1.35;1.00;;;19.70;77.80;;;;;;6186767;23;20008;-77
2023/06/06 05:23:20;;;;;;;1.40;0.77;;;19.60;77.30;;;;;;6187565;23;20020;-76
2023/06/06 05:25:46;;;;;;;1.17;0.55;;;19.70;77.80;;;;;;6186709;23;20004;-77
2023/06/06 05:28:12;;;;;;;1.30;0.60;;;19.70;77.70;;;;;;6188025;23;20020;-78
2023/06/06 05:30:42;;;;;;;1.55;1.15;;;19.70;77.60;;;;;;6211776;23;20013;-77
2023/06/06 05:33:08;;;;;;;1.52;0.45;;;19.70;77.70;;;;;;6161619;23;20382;-77
2023/06/06 05:35:34;;;;;;;2.95;0.88;;;19.70;77.50;;;;;;6186340;23;20008;-77
2023/06/06 05:38:01;;;;;;;1.00;0.57;;;19.70;77.40;;;;;;6187086;23;20019;-78
2023/06/06 05:40:45;;;;;;;1.98;1.00;;;19.80;77.20;;;;;;6186278;23;20350;-78
2023/06/06 05:43:14;;;;;;;0.95;0.77;;;19.80;76.70;;;;;;6187208;23;20487;-77
2023/06/06 05:45:40;;;;;;;1.35;0.70;;;19.80;77.20;;;;;;6161317;23;20334;-78
2023/06/06 05:48:12;;;;;;;5.07;1.13;;;19.70;77.50;;;;;;6212328;23;20009;-78
2023/06/06 05:50:39;;;;;;;1.17;0.68;;;19.80;77.50;;;;;;6185934;23;20421;-77
2023/06/06 05:53:05;;;;;;;2.47;1.15;;;19.80;77.50;;;;;;6212170;23;20039;-78
2023/06/06 05:55:37;;;;;;;1.98;0.93;;;19.90;77.60;;;;;;6186912;23;20008;-78
2023/06/06 05:58:04;;;;;;;1.98;0.68;;;19.90;77.20;;;;;;6212951;23;20020;-78
2023/06/06 06:00:32;;;;;;;1.88;0.70;;;20.00;76.60;;;;;;6186960;23;20457;-77
2023/06/06 06:03:10;;;;;;;2.35;1.08;;;20.20;76.20;;;;;;6161267;23;20017;-79
2023/06/06 06:05:45;;;;;;;1.85;0.80;;;20.30;75.70;;;;;;6162167;23;20377;-78
2023/06/06 06:08:21;;;;;;;0.88;0.68;;;20.40;75.50;;;;;;6185732;23;20338;-78
2023/06/06 06:10:47;;;;;;;1.03;0.67;;;20.50;75.20;;;;;;6212961;23;20015;-78
2023/06/06 06:13:35;;;;;;;;;;;20.50;75.00;;;;;;6214005;23;20021;-78
2023/06/06 06:16:20;;;;;;;1.00;0.45;;;20.70;75.00;;;;;;6129149;23;19996;-78
2023/06/06 06:18:55;;;;;;;0.70;0.47;;;20.70;74.50;;;;;;6101032;23;20406;-78
2023/06/06 06:21:22;;;;;;;0.70;0.40;;;20.80;74.30;;;;;;6150441;23;20086;-77
2023/06/06 06:24:41;;;;;;;;;;;20.90;74.00;;;;;;6226316;23;20370;-77
2023/06/06 06:27:07;;;;;;;1.80;1.38;;;21.00;73.90;;;;;;6216565;23;20288;-78
2023/06/06 06:29:33;;;;;;;;;;;21.10;73.10;;;;;;6245957;23;20435;-78
2023/06/06 06:31:59;;;;;;;0.40;0.40;;;21.20;73.20;;;;;;6218319;23;19926;-77
2023/06/06 06:34:28;;;;;;;0.45;0.45;;;21.30;72.20;;;;;;6245637;23;20004;-79
2023/06/06 06:36:54;;;;;;;1.20;1.08;;;21.50;72.00;;;;;;6244652;23;20008;-78
2023/06/06 06:39:39;;;;;;;1.42;1.05;;;21.60;71.70;;;;;;6218454;23;20012;-78
2023/06/06 06:42:07;;;;;;;1.60;0.77;;;21.70;71.60;;;;;;6193022;23;20031;-78
2023/06/06 06:44:33;;;;;;;0.52;0.43;;;21.80;70.50;;;;;;6193871;23;20091;-77
2023/06/06 06:47:18;;;;;;;;;;;21.80;71.10;;;;;;6193969;23;20441;-78
2023/06/06 06:49:44;;;;;;;0.57;0.57;;;21.80;71.50;;;;;;6218335;23;19958;-77
2023/06/06 06:52:15;;;;;;;0.25;0.25;;;21.80;70.90;;;;;;6244769;23;20024;-77
2023/06/06 06:55:01;;;;;;;0.68;0.57;;;21.80;70.90;;;;;;6220070;23;20004;-78
2023/06/06 06:57:46;;;;;;;1.00;0.82;;;21.90;70.80;;;;;;6193106;23;20370;-77
2023/06/06 07:00:24;;;;;;;1.55;0.93;;;21.90;70.80;;;;;;6218150;23;20015;-77
2023/06/06 07:02:53;;;;;;;1.48;0.65;;;21.90;70.60;;;;;;6193697;23;20083;-77
2023/06/06 07:05:20;;;;;;;1.55;0.93;;;22.00;70.40;;;;;;6218939;23;20083;-77
2023/06/06 07:08:05;;;;;;;0.90;0.52;;;22.00;69.40;;;;;;6193077;23;20016;-77
2023/06/06 07:10:32;;;;;;;0.93;0.80;;;22.10;70.00;;;;;;6218189;23;20035;-76
2023/06/06 07:13:08;;;;;;;1.48;0.73;;;22.10;69.60;;;;;;6193335;23;20038;-76
2023/06/06 07:15:52;;;;;;;1.30;0.75;;;22.20;69.40;;;;;;6218184;23;20004;-77
2023/06/06 07:18:18;;;;;;;0.85;0.65;;;22.30;69.30;;;;;;6218387;23;20012;-76
2023/06/06 07:20:45;;;;;;;;;;;22.40;68.40;;;;;;6218287;23;20074;-76
2023/06/06 07:23:39;;;;;;;1.70;0.77;;;22.60;68.30;;;;;;6245215;23;20275;-77
2023/06/06 07:26:06;;;;;;;2.35;1.52;;;22.70;67.40;;;;;;6244641;23;20008;-77
2023/06/06 07:28:41;;;;;;;2.38;1.45;;;22.80;66.50;;;;;;6244563;23;20034;-77
2023/06/06 07:31:07;;;;;;;0.60;0.60;;;22.70;66.40;;;;;;6218534;23;20499;-77
2023/06/06 07:33:33;;;;;;;;;;;22.70;66.40;;;;;;6218661;23;20372;-77
2023/06/06 07:36:00;;;;;;;0.88;0.85;;;22.60;66.60;;;;;;6244587;23;19911;-76
2023/06/06 07:38:26;;;;;;;1.80;1.27;;;22.60;66.10;;;;;;6218133;23;20154;-77
2023/06/06 07:40:51;;;;;;;;;;;22.50;66.10;;;;;;6218233;23;20437;-76
2023/06/06 07:43:23;;;;;;;0.85;0.63;;;22.40;66.70;;;;;;6192973;23;19953;-76
2023/06/06 07:46:11;;;;;;;0.95;0.60;;;22.40;66.50;;;;;;6191807;23;20008;-76
2023/06/06 07:48:41;;;;;;;0.52;0.30;;;22.40;66.70;;;;;;6217832;23;20012;-76
2023/06/06 07:51:10;;;;;;;0.60;0.50;;;22.50;66.60;;;;;;6217244;23;20722;-76
2023/06/06 07:53:36;;;;;;;1.50;0.93;;;22.60;66.20;;;;;;6217734;23;20004;-76
2023/06/06 07:56:21;;;;;;;;;;;22.60;65.70;;;;;;6218259;23;20016;-77
2023/06/06 07:58:52;;;;;;;1.73;1.23;;;22.70;65.80;;;;;;6244361;23;19930;-76
2023/06/06 08:02:05;;;;;;;2.13;1.38;;;22.80;64.30;;;;;;6218429;23;20013;-76
2023/06/06 08:04:07;;;;;;;1.77;0.85;;;23.20;63.40;;;;;;6211629;23;20066;-77
2023/06/06 08:06:37;;;;;;;3.10;1.27;;;23.30;62.20;;;;;;6192343;23;20267;-77
2023/06/06 08:11:48;;;;;;;0.77;0.47;;;23.60;62.50;;;;;;6221284;23;20018;-76
2023/06/06 08:14:14;;;;;;;2.10;1.55;;;23.80;62.20;;;;;;6218648;23;20020;-77
2023/06/06 08:16:41;;;;;;;4.45;1.88;;;24.00;61.60;;;;;;6217403;23;20031;-77
2023/06/06 08:19:13;;;;;;;1.25;0.82;;;24.30;61.40;;;;;;6218217;23;20008;-77
2023/06/06 08:21:55;;;;;;;0.95;0.75;;;24.80;60.40;;;;;;6244352;23;20023;-76
2023/06/06 08:24:21;;;;;;;1.13;0.85;;;25.00;59.40;;;;;;6217489;23;20103;-77
2023/06/06 08:26:47;;;;;;;3.05;1.67;;;25.00;59.20;;;;;;6191955;23;20396;-76
2023/06/06 08:29:14;;;;;;;;;;;25.10;58.40;;;;;;6245623;23;20012;-77
2023/06/06 08:31:43;;;;;;;1.65;1.10;;;25.10;58.60;;;;;;6217868;23;19990;-77
2023/06/06 08:34:09;;;;;;;0.70;0.65;;;25.30;57.30;;;;;;6218226;23;20009;-77
2023/06/06 08:36:35;;;;;;;0.60;0.40;;;25.60;55.10;;;;;;6217005;23;20012;-76
2023/06/06 08:39:10;;;;;;;0.95;0.75;;;25.40;55.10;;;;;;6243965;23;20012;-77
2023/06/06 08:41:38;;;;;;;0.50;0.50;;;25.60;55.30;;;;;;6216393;23;20091;-79
2023/06/06 08:44:05;;;;;;;0.63;0.40;;;25.80;55.00;;;;;;6216691;23;20275;-78
2023/06/06 08:46:33;;;;;;;1.58;1.42;;;26.00;54.80;;;;;;6192058;23;20038;-78
2023/06/06 08:49:07;;;;;;;2.03;0.80;;;25.90;55.00;;;;;;6243712;23;20011;-79
2023/06/06 08:51:33;;;;;;;0.77;0.60;;;26.20;55.30;;;;;;6217821;23;20023;-79
2023/06/06 08:54:12;;;;;;;1.00;0.85;;;26.70;51.80;;;;;;6218067;23;20012;-77
2023/06/06 08:56:48;;;;;;;1.67;0.98;;;26.50;52.30;;;;;;6243957;23;20020;-79
2023/06/06 08:59:16;;;;;;;2.40;1.58;;;26.50;52.70;;;;;;6217402;23;20012;-78
2023/06/06 09:01:43;;;;;;;1.27;0.80;;;26.60;52.30;;;;;;6217241;23;20416;-78
2023/06/06 09:04:17;;;;;;;0.43;0.43;;;27.00;52.40;;;;;;6192646;23;20012;-79
2023/06/06 09:07:05;;;;;;;1.90;0.93;;;27.20;51.70;;;;;;6216699;23;20433;-79
2023/06/06 09:09:50;;;;;;;0.82;0.70;;;27.20;51.70;;;;;;6192518;23;20008;-78
2023/06/06 09:12:16;;;;;;;1.33;0.80;;;27.40;51.70;;;;;;6217121;23;20050;-78
2023/06/06 09:14:42;;;;;;;1.95;1.40;;;27.60;50.90;;;;;;6191475;23;20031;-78
2023/06/06 09:17:16;;;;;;;1.33;0.90;;;27.60;49.70;;;;;;6215419;23;20015;-78
2023/06/06 09:19:49;;;;;;;0.40;0.30;;;27.40;50.30;;;;;;6184765;23;20008;-78
2023/06/06 09:22:15;;;;;;;1.85;1.50;;;27.30;50.00;;;;;;6209785;23;20074;-80
2023/06/06 09:24:57;;;;;;;0.28;0.28;;;27.30;50.40;;;;;;6212686;23;20019;-77
2023/06/06 09:27:58;;;;;;;1.20;1.02;;;27.40;50.30;;;;;;6186033;23;20023;-78
2023/06/06 09:30:27;;;;;;;2.28;0.80;;;27.70;48.90;;;;;;6211022;23;20445;-78
2023/06/06 09:33:14;;;;;;;0.98;0.60;;;28.10;46.40;;;;;;6211328;23;20020;-79
2023/06/06 09:35:49;;;;;;;1.42;1.08;;;28.30;44.70;;;;;;6210660;23;20094;-78
2023/06/06 09:38:17;;;;;;;1.35;1.05;;;28.50;44.80;;;;;;6211995;23;20422;-79
2023/06/06 09:41:02;;;;;;;2.13;1.02;;;29.00;43.70;;;;;;6211366;23;20019;-78
2023/06/06 09:43:30;;;;;;;1.13;1.02;;;29.10;45.30;;;;;;6209926;23;20078;-78
2023/06/06 09:46:04;;;;;;;0.88;0.50;;;29.30;44.70;;;;;;6211144;23;20099;-79
2023/06/06 09:48:30;;;;;;;0.57;0.57;;;29.60;44.70;;;;;;6214476;23;20012;-79
2023/06/06 09:50:57;;;;;;;0.77;0.60;;;29.80;44.60;;;;;;6209636;23;20031;-78
2023/06/06 09:53:50;;;;;;;1.60;1.05;;;29.80;43.40;;;;;;6212703;23;20071;-78
2023/06/06 09:56:23;;;;;;;1.25;0.60;;;29.90;43.30;;;;;;6211871;23;20484;-78
2023/06/06 09:59:25;;;;;;;0.90;0.55;;;30.10;40.80;;;;;;6211639;23;20055;-79
2023/06/06 10:02:06;;;;;;;1.65;1.15;;;30.10;39.80;;;;;;6211702;23;20017;-78
2023/06/06 10:04:35;;;;;;;2.80;0.70;;;29.90;40.70;;;;;;6188064;23;20392;-78
2023/06/06 10:07:02;;;;;;;1.88;1.48;;;29.60;41.70;;;;;;6211786;23;20012;-80
2023/06/06 10:09:42;;;;;;;0.88;0.82;;;29.40;42.90;;;;;;6188695;23;20428;-79
2023/06/06 10:12:10;;;;;;;0.95;0.65;;;29.40;43.20;;;;;;6212605;23;20012;-80
2023/06/06 10:14:43;;;;;;;1.55;1.00;;;29.80;42.60;;;;;;6215534;23;20034;-79
2023/06/06 10:17:10;;;;;;;1.25;0.90;;;29.70;41.40;;;;;;6186709;23;20012;-78
2023/06/06 10:19:39;;;;;;;1.73;0.70;;;29.80;41.60;;;;;;6189121;23;20008;-78
2023/06/06 10:22:05;;;;;;;1.33;0.98;;;29.90;41.40;;;;;;6213477;23;20012;-79
2023/06/06 10:24:33;;;;;;;0.85;0.50;;;29.90;39.40;;;;;;6189306;23;20249;-78
2023/06/06 10:27:44;;;;;;;0.40;0.40;;;29.60;40.20;;;;;;6214274;23;20070;-78
2023/06/06 10:30:51;;;;;;;0.45;0.43;;;29.90;40.70;;;;;;6212515;23;20024;-78
2023/06/06 10:33:55;;;;;;;0.65;0.38;;;30.40;39.40;;;;;;6239370;23;20063;-80
2023/06/06 10:36:21;;;;;;;1.38;0.85;;;30.90;38.70;;;;;;6187672;23;20091;-78
2023/06/06 10:39:36;;;;;;;0.70;0.68;;;31.50;38.10;;;;;;6213548;23;20065;-79
2023/06/06 10:42:10;;;;;;;0.73;0.73;;;31.70;36.70;;;;;;6214504;23;20020;-78
2023/06/06 10:44:54;;;;;;;0.73;0.68;;;31.80;36.20;;;;;;6211304;23;20043;-77
2023/06/06 10:47:29;;;;;;;0.95;0.75;;;31.90;36.00;;;;;;6210765;23;20030;-80
2023/06/06 10:52:56;;;;;;;0.47;0.47;;;32.10;36.00;;;;;;6239476;23;20374;-79
2023/06/06 10:56:04;;;;;;;0.50;0.50;;;32.40;35.40;;;;;;6213869;23;20027;-80
2023/06/06 10:58:49;;;;;;;1.38;0.93;;;32.50;35.00;;;;;;6238987;23;20024;-79
2023/06/06 11:01:22;;;;;;;0.60;0.47;;;32.50;34.20;;;;;;6240188;23;20341;-80
2023/06/06 11:03:48;;;;;;;0.95;0.60;;;32.50;35.30;;;;;;6189355;23;20020;-78
2023/06/06 11:06:16;;;;;;;3.47;1.52;;;32.70;34.70;;;;;;6211199;23;20065;-79
2023/06/06 11:09:21;;;;;;;1.75;0.95;;;32.80;32.40;;;;;;6212295;23;20020;-78
2023/06/06 11:11:50;;;;;;;0.65;0.57;;;33.10;33.60;;;;;;6211984;23;20008;-78
2023/06/06 11:17:05;;;;;;;1.25;1.00;;;32.90;32.90;;;;;;6216163;23;20019;-79
2023/06/06 11:19:37;;;;;;;0.47;0.38;;;32.60;34.00;;;;;;6212586;23;20020;-80
2023/06/06 11:22:03;;;;;;;6.60;1.25;;;32.30;33.50;;;;;;6185748;23;20023;-78
2023/06/06 11:24:48;;;;;;;0.40;0.40;;;32.10;34.40;;;;;;6209992;23;20039;-79
2023/06/06 11:27:17;;;;;;;1.13;0.93;;;31.80;34.50;;;;;;6238026;23;20457;-78
2023/06/06 11:29:45;;;;;;;0.70;0.68;;;31.30;35.30;;;;;;6212144;23;20024;-79
2023/06/06 11:32:33;;;;;;;0.40;0.40;;;30.90;34.20;;;;;;6214433;23;20382;-80
2023/06/06 11:35:07;;;;;;;1.45;1.10;;;30.60;36.50;;;;;;6187686;23;20042;-78
2023/06/06 11:37:36;;;;;;;0.60;0.38;;;30.60;37.00;;;;;;6187610;23;20031;-78
2023/06/06 11:40:46;;;;;;;0.75;0.73;;;30.70;37.00;;;;;;6213437;23;20016;-79
2023/06/06 11:43:12;;;;;;;1.30;0.50;;;30.90;36.40;;;;;;6206985;23;20032;-79
2023/06/06 11:45:39;;;;;;;1.55;0.93;;;31.40;36.30;;;;;;6207736;23;20015;-80
2023/06/06 11:48:26;;;;;;;0.75;0.70;;;31.70;35.30;;;;;;6157630;23;20039;-78
2023/06/06 11:50:52;;;;;;;0.98;0.70;;;32.00;34.80;;;;;;6205976;23;20013;-80
2023/06/06 11:53:52;;;;;;;1.02;0.70;;;32.30;35.40;;;;;;6206800;23;20070;-79
2023/06/06 11:56:19;;;;;;;1.27;0.77;;;32.50;34.90;;;;;;6208627;23;20091;-79
2023/06/06 11:58:45;;;;;;;0.85;0.73;;;32.40;34.70;;;;;;6181215;23;20012;-81
2023/06/06 12:01:15;;;;;;;2.28;1.00;;;32.10;34.20;;;;;;6181576;23;20014;-79
2023/06/06 12:03:43;;;;;;;0.75;0.65;;;31.80;33.90;;;;;;6208057;23;20016;-79
2023/06/06 12:06:12;;;;;;;0.95;0.80;;;31.60;35.40;;;;;;6183567;23;20023;-80
2023/06/06 12:08:50;;;;;;;1.20;1.02;;;31.30;36.40;;;;;;6155345;23;20004;-79
2023/06/06 12:14:41;;;;;;;0.73;0.60;;;30.90;36.10;;;;;;6163640;23;20124;-80
2023/06/06 12:17:10;;;;;;;0.80;0.75;;;30.90;36.20;;;;;;6208111;23;20005;-80
2023/06/06 12:19:37;;;;;;;0.85;0.65;;;30.90;36.60;;;;;;6156792;23;20448;-78
2023/06/06 12:23:04;;;;;;;0.73;0.65;;;30.80;36.40;;;;;;6156082;23;20013;-80
2023/06/06 12:25:31;;;;;;;0.63;0.63;;;30.60;36.90;;;;;;6179476;23;20009;-78
2023/06/06 12:28:16;;;;;;;0.60;0.60;;;30.50;37.50;;;;;;6205764;23;20016;-80
2023/06/06 12:30:57;;;;;;;0.30;0.30;;;30.50;37.40;;;;;;6181325;23;20009;-79
2023/06/06 12:34:01;;;;;;;0.75;0.60;;;30.60;37.30;;;;;;6205123;23;20051;-81
2023/06/06 12:36:28;;;;;;;1.98;1.20;;;30.70;37.40;;;;;;6175284;23;20009;-79
2023/06/06 12:38:58;;;;;;;1.00;0.80;;;30.80;36.90;;;;;;6150934;23;20017;-79
2023/06/06 12:41:55;;;;;;;0.50;0.50;;;30.70;36.70;;;;;;6123846;23;20049;-80
2023/06/06 12:44:21;;;;;;;1.02;0.73;;;30.60;37.10;;;;;;6125089;23;20482;-79
2023/06/06 12:47:06;;;;;;;2.03;0.68;;;30.60;38.20;;;;;;6173627;23;20020;-79
2023/06/06 12:49:48;;;;;;;0.98;0.88;;;30.80;36.00;;;;;;6193455;23;20114;-80
2023/06/06 12:52:14;;;;;;;2.65;0.68;;;31.20;36.10;;;;;;6211640;23;20400;-79
2023/06/06 12:54:41;;;;;;;0.98;0.93;;;31.50;35.00;;;;;;6212583;23;20095;-79
2023/06/06 12:57:48;;;;;;;2.08;1.50;;;31.30;35.20;;;;;;6186169;23;20012;-79
2023/06/06 13:00:21;;;;;;;1.00;0.75;;;30.70;35.90;;;;;;6237237;23;20016;-79
2023/06/06 13:02:48;;;;;;;0.95;0.70;;;30.30;37.90;;;;;;6209873;23;20047;-79
2023/06/06 13:05:14;;;;;;;1.42;0.95;;;30.00;38.50;;;;;;6212049;23;20023;-79
2023/06/06 13:07:56;;;;;;;1.98;1.10;;;29.80;38.70;;;;;;6212283;23;20011;-79
2023/06/06 13:10:34;;;;;;;0.93;0.57;;;29.60;39.20;;;;;;6186515;23;20047;-80
2023/06/06 13:13:23;;;;;;;0.75;0.68;;;29.60;39.70;;;;;;6184338;23;20054;-80
2023/06/06 13:16:07;;;;;;;0.95;0.75;;;29.50;40.00;;;;;;6237268;23;20068;-80
2023/06/06 13:18:53;;;;;;;0.50;0.43;;;29.50;40.30;;;;;;6210299;23;20208;-79
2023/06/06 13:21:20;;;;;;;0.57;0.57;;;29.70;39.20;;;;;;6211437;23;20019;-79
2023/06/06 13:24:07;;;;;;;1.45;0.70;;;30.00;39.10;;;;;;6209743;23;20115;-79
2023/06/06 13:26:51;;;;;;;;;;;30.20;39.80;;;;;;6210054;23;20016;-80
2023/06/06 13:29:17;;;;;;;0.52;0.45;;;30.20;39.60;;;;;;6237813;23;20243;-80
2023/06/06 13:34:49;;;;;;;0.50;0.40;;;29.90;38.80;;;;;;6145788;23;20092;-79
2023/06/06 13:37:24;;;;;;;2.50;1.13;;;29.80;38.90;;;;;;6145016;23;20028;-78
2023/06/06 13:39:50;;;;;;;1.20;0.93;;;29.90;39.00;;;;;;6144649;23;20435;-80
2023/06/06 13:42:44;;;;;;;;;;;;;;;;;;;;;
2023/06/06 13:45:20;;;;;;;2.38;1.17;;;29.80;39.10;;;;;;6114142;23;20021;-80
2023/06/06 13:47:59;;;;;;;2.72;1.30;;;29.80;38.70;;;;;;6115927;23;20010;-78